Wilton, Arkansas
Current Conditions -  °F | °C
As of 2:53 PM on Wednesday 17 Dec 2014 (Local Time) from KTXK Reporting Station
Light Rain Light Rain  
Wind Chill: 35°   Ceiling: 7000
Heat Index: 40°   Visibility: 10mi
Dew Point: 33°   Wind: 7mph
Humidity: 77%   Direction: 60°ENE
Pressure: 30.21"   Gusts: NA
Location:  33.74°N, 94.15°W
Report Text: KTXK 172053Z 06006KT 10SM -RA OVC070 04/01 A3021 RMK AO2 RAB45 SLP232 P0000 60000 T00440006 58030
Loading
Personal Weather Stations






























Interactive Weather Map New forecast layout! Learn more

10-Day Weather Forecast

Advertisements
Track Severe Weather on mobile